VVNB Airport Information

Runway Information
Runway 11L Length 12466 ft width 148 ft
Elevation 40 ft Threshold 0 ft Heading 107
Runway 29R Length 12466 ft Width 148 ft
Elevation 40 ft Threshold 0 ft Heading 287
Runway 11R Length 12466 ft width 148 ft
Elevation 38 ft Threshold 0 ft Heading 107
Runway 29L Length 12466 ft Width 148 ft
Elevation 39 ft Threshold 0 ft Heading 287
Airport Frequencies
Type APP Name APP Frequency 125.1 MHZ
Type GND Name GND Frequency 121.9 MHZ
Type TWR Name TWR Frequency 118.2 MHZ
Airport Navaids
Type NDB Name Noibai Frequency 230 KHZ
Type NDB Name Noibai Frequency 320 KHZ
Type VOR-DME Name Noibai Frequency 116100 KHZ
Airport Weather Information & NOTAM
ADDS - METARS form results

(0813 UTC 08 August 2020)
Data provider http://aviationweather.gov/metar/data/
 
METAR text: VVNB 080800Z 10009KT 9999 FEW032 34/25 Q1002 NOSIG
Conditions at: VVNB (HANOI/NOIBAI INT, VN) observed 0800 UTC 08 August 2020
Temperature: 34.0°C (93°F)
Dewpoint: 25.0°C (77°F) [RH = 60%]
Pressure (altimeter): 29.59 inches Hg (1002.0 mb)
Winds: from the E (100 degrees) at 10 MPH (9 knots; 4.6 m/s)
Visibility: 6 or more miles (10+ km)
Ceiling: at least 12,000 feet AGL
Clouds: few clouds at 3200 feet AGL
Weather: no significant weather observed at this time

METAR text: VVNB 080730Z 13010KT 9999 FEW031 33/25 Q1003 NOSIG
Conditions at: VVNB (HANOI/NOIBAI INT, VN) observed 0730 UTC 08 August 2020
Temperature: 33.0°C (91°F)
Dewpoint: 25.0°C (77°F) [RH = 63%]
Pressure (altimeter): 29.62 inches Hg (1003.0 mb)
Winds: from the SE (130 degrees) at 12 MPH (10 knots; 5.1 m/s)
Visibility: 6 or more miles (10+ km)
Ceiling: at least 12,000 feet AGL
Clouds: few clouds at 3100 feet AGL
Weather: no significant weather observed at this time

Forecast for: VVNB (HANOI/NOIBAI INT, VN)
Text: TAF VVNB 080500Z 0806/0906 15006KT 9999 SCT027
Forecast period: 0600 UTC 08 August 2020 to 0600 UTC 09 August 2020
Forecast type: FROM: standard forecast or significant change
Winds: from the SSE (150 degrees) at 7 MPH (6 knots; 3.1 m/s)
Visibility: 6 or more miles (10+ km)
Ceiling: at least 12,000 feet AGL
Clouds: scattered clouds at 2700 feet AGL
Weather: no significant weather forecast for this period
Text: TEMPO 0810/0815 VRB15G25KT 3000 +TSRA SCT015 FEW027CB BKN030
Forecast period: 1000 to 1500 UTC 08 August 2020
Forecast type: TEMPORARY: The following changes expected for less than half the time period
Winds: variable direction winds at 17 MPH (15 knots; 7.7 m/s)
gusting to 29 MPH (25 knots; 12.9 m/s)
Visibility: 1.86 miles (2.99 km)
Ceiling: 3000 feet AGL
Clouds: scattered clouds at 1500 feet AGL
few clouds at 2700 feet AGL
broken clouds at 3000 feet AGL
Weather: +TSRA  (heavy rain associated with thunderstorm(s))